sensor_id;sensor_type;location;lat;lon;timestamp;P1;durP1;ratioP1;P2;durP2;ratioP2
27985;SDS011;15453;53.692;10.168;2023-01-04T00:01:58;5.35;;;2.80;;
27985;SDS011;15453;53.692;10.168;2023-01-04T00:04:23;5.00;;;2.80;;
27985;SDS011;15453;53.692;10.168;2023-01-04T00:06:48;4.25;;;2.50;;
27985;SDS011;15453;53.692;10.168;2023-01-04T00:09:14;7.00;;;2.70;;
27985;SDS011;15453;53.692;10.168;2023-01-04T00:11:39;6.20;;;2.50;;
27985;SDS011;15453;53.692;10.168;2023-01-04T00:14:04;4.65;;;2.40;;
27985;SDS011;15453;53.692;10.168;2023-01-04T00:16:30;6.50;;;2.63;;
27985;SDS011;15453;53.692;10.168;2023-01-04T00:18:56;6.47;;;2.55;;
27985;SDS011;15453;53.692;10.168;2023-01-04T00:21:22;5.20;;;2.50;;
27985;SDS011;15453;53.692;10.168;2023-01-04T00:23:53;4.45;;;2.28;;
27985;SDS011;15453;53.692;10.168;2023-01-04T00:26:22;5.03;;;1.98;;
27985;SDS011;15453;53.692;10.168;2023-01-04T00:28:59;6.30;;;2.55;;
27985;SDS011;15453;53.692;10.168;2023-01-04T00:31:30;7.38;;;2.30;;
27985;SDS011;15453;53.692;10.168;2023-01-04T00:33:57;4.78;;;2.20;;
27985;SDS011;15453;53.692;10.168;2023-01-04T00:36:24;4.47;;;2.05;;
27985;SDS011;15453;53.692;10.168;2023-01-04T00:38:50;6.68;;;2.05;;
27985;SDS011;15453;53.692;10.168;2023-01-04T00:41:38;3.58;;;1.75;;
27985;SDS011;15453;53.692;10.168;2023-01-04T00:44:05;5.55;;;2.00;;
27985;SDS011;15453;53.692;10.168;2023-01-04T00:46:31;3.67;;;1.98;;
27985;SDS011;15453;53.692;10.168;2023-01-04T00:48:57;5.15;;;2.05;;
27985;SDS011;15453;53.692;10.168;2023-01-04T00:51:23;6.13;;;2.10;;
27985;SDS011;15453;53.692;10.168;2023-01-04T00:53:49;6.40;;;2.10;;
27985;SDS011;15453;53.692;10.168;2023-01-04T00:56:14;4.85;;;1.90;;
27985;SDS011;15453;53.692;10.168;2023-01-04T00:58:39;7.05;;;1.90;;
27985;SDS011;15453;53.692;10.168;2023-01-04T01:01:05;4.68;;;1.63;;
27985;SDS011;15453;53.692;10.168;2023-01-04T01:03:31;4.80;;;1.75;;
27985;SDS011;15453;53.692;10.168;2023-01-04T01:06:00;4.43;;;1.45;;
27985;SDS011;15453;53.692;10.168;2023-01-04T01:08:26;3.78;;;1.63;;
27985;SDS011;15453;53.692;10.168;2023-01-04T01:10:52;4.55;;;1.70;;
27985;SDS011;15453;53.692;10.168;2023-01-04T01:13:19;2.85;;;1.48;;
27985;SDS011;15453;53.692;10.168;2023-01-04T01:15:45;6.95;;;1.80;;
27985;SDS011;15453;53.692;10.168;2023-01-04T01:18:10;5.35;;;1.80;;
27985;SDS011;15453;53.692;10.168;2023-01-04T01:20:39;7.07;;;1.88;;
27985;SDS011;15453;53.692;10.168;2023-01-04T01:23:05;6.13;;;1.65;;
27985;SDS011;15453;53.692;10.168;2023-01-04T01:25:32;5.68;;;1.98;;
27985;SDS011;15453;53.692;10.168;2023-01-04T01:27:57;3.67;;;1.40;;
27985;SDS011;15453;53.692;10.168;2023-01-04T01:30:23;3.83;;;1.70;;
27985;SDS011;15453;53.692;10.168;2023-01-04T01:32:48;4.57;;;1.52;;
27985;SDS011;15453;53.692;10.168;2023-01-04T01:35:13;4.72;;;1.60;;
27985;SDS011;15453;53.692;10.168;2023-01-04T01:37:38;4.53;;;2.03;;
27985;SDS011;15453;53.692;10.168;2023-01-04T01:40:04;3.33;;;1.50;;
27985;SDS011;15453;53.692;10.168;2023-01-04T01:42:29;6.43;;;2.22;;
27985;SDS011;15453;53.692;10.168;2023-01-04T01:44:59;5.25;;;1.60;;
27985;SDS011;15453;53.692;10.168;2023-01-04T01:47:27;5.25;;;1.40;;
27985;SDS011;15453;53.692;10.168;2023-01-04T01:50:01;7.57;;;1.90;;
27985;SDS011;15453;53.692;10.168;2023-01-04T01:52:28;5.68;;;1.40;;
27985;SDS011;15453;53.692;10.168;2023-01-04T01:55:01;4.47;;;1.90;;
27985;SDS011;15453;53.692;10.168;2023-01-04T01:57:31;4.38;;;1.40;;
27985;SDS011;15453;53.692;10.168;2023-01-04T02:00:02;4.53;;;1.95;;
27985;SDS011;15453;53.692;10.168;2023-01-04T02:02:30;4.53;;;1.73;;
27985;SDS011;15453;53.692;10.168;2023-01-04T02:04:55;4.18;;;1.58;;
27985;SDS011;15453;53.692;10.168;2023-01-04T02:07:24;9.77;;;2.20;;
27985;SDS011;15453;53.692;10.168;2023-01-04T02:09:52;3.80;;;1.65;;
27985;SDS011;15453;53.692;10.168;2023-01-04T02:12:18;5.20;;;1.67;;
27985;SDS011;15453;53.692;10.168;2023-01-04T02:14:44;7.50;;;1.65;;
27985;SDS011;15453;53.692;10.168;2023-01-04T02:17:14;5.20;;;1.40;;
27985;SDS011;15453;53.692;10.168;2023-01-04T02:25:49;5.72;;;1.20;;
27985;SDS011;15453;53.692;10.168;2023-01-04T02:34:06;4.75;;;1.50;;
27985;SDS011;15453;53.692;10.168;2023-01-04T02:42:04;5.55;;;1.60;;
27985;SDS011;15453;53.692;10.168;2023-01-04T02:44:44;4.03;;;1.65;;
27985;SDS011;15453;53.692;10.168;2023-01-04T02:47:30;3.80;;;1.60;;
27985;SDS011;15453;53.692;10.168;2023-01-04T02:53:05;3.00;;;1.38;;
27985;SDS011;15453;53.692;10.168;2023-01-04T02:58:43;3.08;;;1.20;;
27985;SDS011;15453;53.692;10.168;2023-01-04T03:04:48;7.47;;;2.10;;
27985;SDS011;15453;53.692;10.168;2023-01-04T03:07:49;6.18;;;1.75;;
27985;SDS011;15453;53.692;10.168;2023-01-04T03:12:56;7.07;;;1.58;;
27985;SDS011;15453;53.692;10.168;2023-01-04T03:15:30;3.83;;;1.27;;
27985;SDS011;15453;53.692;10.168;2023-01-04T03:18:06;5.45;;;1.60;;
27985;SDS011;15453;53.692;10.168;2023-01-04T03:20:37;9.43;;;1.75;;
27985;SDS011;15453;53.692;10.168;2023-01-04T03:23:04;3.58;;;1.63;;
27985;SDS011;15453;53.692;10.168;2023-01-04T03:25:56;3.17;;;1.45;;
27985;SDS011;15453;53.692;10.168;2023-01-04T03:28:43;7.18;;;1.80;;
27985;SDS011;15453;53.692;10.168;2023-01-04T03:31:31;4.82;;;1.65;;
27985;SDS011;15453;53.692;10.168;2023-01-04T03:34:29;2.63;;;1.35;;
27985;SDS011;15453;53.692;10.168;2023-01-04T03:37:17;4.18;;;1.50;;
27985;SDS011;15453;53.692;10.168;2023-01-04T03:39:53;3.90;;;1.27;;
27985;SDS011;15453;53.692;10.168;2023-01-04T03:43:02;6.18;;;1.70;;
27985;SDS011;15453;53.692;10.168;2023-01-04T03:45:54;4.22;;;1.60;;
27985;SDS011;15453;53.692;10.168;2023-01-04T03:51:19;3.22;;;1.40;;
27985;SDS011;15453;53.692;10.168;2023-01-04T03:53:54;4.72;;;1.27;;
27985;SDS011;15453;53.692;10.168;2023-01-04T03:56:25;3.78;;;1.38;;
27985;SDS011;15453;53.692;10.168;2023-01-04T03:58:54;5.47;;;1.70;;
27985;SDS011;15453;53.692;10.168;2023-01-04T04:01:19;6.55;;;1.90;;
27985;SDS011;15453;53.692;10.168;2023-01-04T04:03:47;5.55;;;1.38;;
27985;SDS011;15453;53.692;10.168;2023-01-04T04:06:31;6.93;;;1.70;;
27985;SDS011;15453;53.692;10.168;2023-01-04T04:09:14;4.45;;;1.38;;
27985;SDS011;15453;53.692;10.168;2023-01-04T04:11:40;5.90;;;1.55;;
27985;SDS011;15453;53.692;10.168;2023-01-04T04:14:05;4.70;;;2.08;;
27985;SDS011;15453;53.692;10.168;2023-01-04T04:16:30;9.27;;;1.52;;
27985;SDS011;15453;53.692;10.168;2023-01-04T04:18:55;3.95;;;1.30;;
27985;SDS011;15453;53.692;10.168;2023-01-04T04:21:21;4.25;;;2.15;;
27985;SDS011;15453;53.692;10.168;2023-01-04T04:23:47;7.45;;;1.55;;
27985;SDS011;15453;53.692;10.168;2023-01-04T04:26:12;3.55;;;1.40;;
27985;SDS011;15453;53.692;10.168;2023-01-04T04:28:37;6.03;;;1.58;;
27985;SDS011;15453;53.692;10.168;2023-01-04T04:31:03;3.30;;;1.35;;
27985;SDS011;15453;53.692;10.168;2023-01-04T04:33:29;4.80;;;1.77;;
27985;SDS011;15453;53.692;10.168;2023-01-04T04:35:54;3.78;;;1.33;;
27985;SDS011;15453;53.692;10.168;2023-01-04T04:38:20;6.18;;;1.60;;
27985;SDS011;15453;53.692;10.168;2023-01-04T04:40:46;4.20;;;1.50;;
27985;SDS011;15453;53.692;10.168;2023-01-04T04:43:31;4.95;;;1.55;;
27985;SDS011;15453;53.692;10.168;2023-01-04T04:45:57;6.72;;;1.65;;
27985;SDS011;15453;53.692;10.168;2023-01-04T04:48:22;5.18;;;1.50;;
27985;SDS011;15453;53.692;10.168;2023-01-04T04:50:48;4.47;;;1.73;;
27985;SDS011;15453;53.692;10.168;2023-01-04T04:53:13;3.63;;;1.40;;
27985;SDS011;15453;53.692;10.168;2023-01-04T04:55:38;4.45;;;1.63;;
27985;SDS011;15453;53.692;10.168;2023-01-04T04:58:03;3.90;;;1.58;;
27985;SDS011;15453;53.692;10.168;2023-01-04T05:00:29;6.43;;;1.73;;
27985;SDS011;15453;53.692;10.168;2023-01-04T05:02:57;6.43;;;1.60;;
27985;SDS011;15453;53.692;10.168;2023-01-04T05:05:22;3.85;;;1.63;;
27985;SDS011;15453;53.692;10.168;2023-01-04T05:07:48;5.95;;;1.73;;
27985;SDS011;15453;53.692;10.168;2023-01-04T05:10:13;5.03;;;1.77;;
27985;SDS011;15453;53.692;10.168;2023-01-04T05:12:38;5.82;;;1.70;;
27985;SDS011;15453;53.692;10.168;2023-01-04T05:15:22;7.47;;;1.95;;
27985;SDS011;15453;53.692;10.168;2023-01-04T05:17:47;6.15;;;2.08;;
27985;SDS011;15453;53.692;10.168;2023-01-04T05:20:12;4.25;;;1.83;;
27985;SDS011;15453;53.692;10.168;2023-01-04T05:22:38;6.60;;;1.63;;
27985;SDS011;15453;53.692;10.168;2023-01-04T05:25:03;7.60;;;2.38;;
27985;SDS011;15453;53.692;10.168;2023-01-04T05:27:29;4.30;;;1.52;;
27985;SDS011;15453;53.692;10.168;2023-01-04T05:29:54;2.90;;;1.45;;
27985;SDS011;15453;53.692;10.168;2023-01-04T05:32:54;8.40;;;1.67;;
27985;SDS011;15453;53.692;10.168;2023-01-04T05:35:20;6.05;;;1.48;;
27985;SDS011;15453;53.692;10.168;2023-01-04T05:37:45;4.47;;;1.63;;
27985;SDS011;15453;53.692;10.168;2023-01-04T05:40:11;4.43;;;1.83;;
27985;SDS011;15453;53.692;10.168;2023-01-04T05:42:36;3.65;;;1.63;;
27985;SDS011;15453;53.692;10.168;2023-01-04T05:45:01;4.05;;;1.42;;
27985;SDS011;15453;53.692;10.168;2023-01-04T05:47:27;3.17;;;1.35;;
27985;SDS011;15453;53.692;10.168;2023-01-04T05:49:52;3.78;;;1.55;;
27985;SDS011;15453;53.692;10.168;2023-01-04T05:52:18;4.63;;;1.83;;
27985;SDS011;15453;53.692;10.168;2023-01-04T05:54:44;7.68;;;2.13;;
27985;SDS011;15453;53.692;10.168;2023-01-04T05:57:09;3.65;;;1.55;;
27985;SDS011;15453;53.692;10.168;2023-01-04T05:59:35;3.05;;;1.70;;
27985;SDS011;15453;53.692;10.168;2023-01-04T06:02:00;3.53;;;1.60;;
27985;SDS011;15453;53.692;10.168;2023-01-04T06:04:26;4.15;;;1.77;;
27985;SDS011;15453;53.692;10.168;2023-01-04T06:06:51;3.67;;;1.58;;
27985;SDS011;15453;53.692;10.168;2023-01-04T06:09:16;4.25;;;1.65;;
27985;SDS011;15453;53.692;10.168;2023-01-04T06:11:42;1.95;;;1.25;;
27985;SDS011;15453;53.692;10.168;2023-01-04T06:14:07;4.05;;;1.65;;
27985;SDS011;15453;53.692;10.168;2023-01-04T06:16:32;4.68;;;1.23;;
27985;SDS011;15453;53.692;10.168;2023-01-04T06:18:58;2.75;;;1.50;;
27985;SDS011;15453;53.692;10.168;2023-01-04T06:21:23;4.72;;;1.20;;
27985;SDS011;15453;53.692;10.168;2023-01-04T06:23:49;5.75;;;1.60;;
27985;SDS011;15453;53.692;10.168;2023-01-04T06:26:15;3.92;;;1.40;;
27985;SDS011;15453;53.692;10.168;2023-01-04T06:28:40;2.90;;;1.38;;
27985;SDS011;15453;53.692;10.168;2023-01-04T06:31:06;3.35;;;1.60;;
27985;SDS011;15453;53.692;10.168;2023-01-04T06:33:32;2.25;;;1.20;;
27985;SDS011;15453;53.692;10.168;2023-01-04T06:35:58;2.80;;;1.13;;
27985;SDS011;15453;53.692;10.168;2023-01-04T06:38:23;2.50;;;1.20;;
27985;SDS011;15453;53.692;10.168;2023-01-04T06:40:49;1.98;;;1.33;;
27985;SDS011;15453;53.692;10.168;2023-01-04T06:43:14;1.85;;;1.25;;
27985;SDS011;15453;53.692;10.168;2023-01-04T06:45:40;2.97;;;1.52;;
27985;SDS011;15453;53.692;10.168;2023-01-04T06:48:06;6.40;;;1.48;;
27985;SDS011;15453;53.692;10.168;2023-01-04T06:50:31;3.10;;;1.20;;
27985;SDS011;15453;53.692;10.168;2023-01-04T06:52:56;3.88;;;1.20;;
27985;SDS011;15453;53.692;10.168;2023-01-04T06:55:22;2.22;;;0.90;;
27985;SDS011;15453;53.692;10.168;2023-01-04T06:57:47;4.38;;;1.08;;
27985;SDS011;15453;53.692;10.168;2023-01-04T07:00:12;2.70;;;0.90;;
27985;SDS011;15453;53.692;10.168;2023-01-04T07:02:38;2.33;;;1.20;;
27985;SDS011;15453;53.692;10.168;2023-01-04T07:05:03;3.78;;;1.63;;
27985;SDS011;15453;53.692;10.168;2023-01-04T07:07:30;1.70;;;1.13;;
27985;SDS011;15453;53.692;10.168;2023-01-04T07:09:56;3.35;;;1.20;;
27985;SDS011;15453;53.692;10.168;2023-01-04T07:12:22;3.55;;;1.40;;
27985;SDS011;15453;53.692;10.168;2023-01-04T07:14:47;2.65;;;1.25;;
27985;SDS011;15453;53.692;10.168;2023-01-04T07:17:12;1.88;;;0.95;;
27985;SDS011;15453;53.692;10.168;2023-01-04T07:19:37;1.65;;;1.00;;
27985;SDS011;15453;53.692;10.168;2023-01-04T07:22:03;2.05;;;1.13;;
27985;SDS011;15453;53.692;10.168;2023-01-04T07:24:28;1.73;;;1.08;;
27985;SDS011;15453;53.692;10.168;2023-01-04T07:26:53;1.83;;;1.00;;
27985;SDS011;15453;53.692;10.168;2023-01-04T07:29:19;1.75;;;0.82;;
27985;SDS011;15453;53.692;10.168;2023-01-04T07:31:46;1.65;;;1.02;;
27985;SDS011;15453;53.692;10.168;2023-01-04T07:34:13;2.38;;;1.00;;
27985;SDS011;15453;53.692;10.168;2023-01-04T07:36:40;1.92;;;0.85;;
27985;SDS011;15453;53.692;10.168;2023-01-04T07:39:06;2.75;;;1.20;;
27985;SDS011;15453;53.692;10.168;2023-01-04T07:41:34;1.27;;;0.70;;
27985;SDS011;15453;53.692;10.168;2023-01-04T07:44:00;0.80;;;0.70;;
27985;SDS011;15453;53.692;10.168;2023-01-04T07:46:25;2.05;;;1.00;;
27985;SDS011;15453;53.692;10.168;2023-01-04T07:48:51;1.90;;;1.02;;
27985;SDS011;15453;53.692;10.168;2023-01-04T07:51:17;1.45;;;0.90;;
27985;SDS011;15453;53.692;10.168;2023-01-04T07:53:42;1.20;;;0.80;;
27985;SDS011;15453;53.692;10.168;2023-01-04T07:56:07;2.17;;;0.80;;
27985;SDS011;15453;53.692;10.168;2023-01-04T07:58:33;1.67;;;1.17;;
27985;SDS011;15453;53.692;10.168;2023-01-04T08:01:05;1.30;;;1.05;;
27985;SDS011;15453;53.692;10.168;2023-01-04T08:03:31;1.92;;;1.10;;
27985;SDS011;15453;53.692;10.168;2023-01-04T08:05:57;2.90;;;1.45;;
27985;SDS011;15453;53.692;10.168;2023-01-04T08:08:22;2.95;;;1.52;;
27985;SDS011;15453;53.692;10.168;2023-01-04T08:10:47;1.70;;;1.38;;
27985;SDS011;15453;53.692;10.168;2023-01-04T08:13:12;2.03;;;1.63;;
27985;SDS011;15453;53.692;10.168;2023-01-04T08:15:37;1.90;;;1.58;;
27985;SDS011;15453;53.692;10.168;2023-01-04T08:18:03;3.63;;;1.80;;
27985;SDS011;15453;53.692;10.168;2023-01-04T08:20:28;2.97;;;2.20;;
27985;SDS011;15453;53.692;10.168;2023-01-04T08:22:53;4.88;;;1.92;;
27985;SDS011;15453;53.692;10.168;2023-01-04T08:25:18;2.55;;;1.90;;
27985;SDS011;15453;53.692;10.168;2023-01-04T08:27:44;2.88;;;2.25;;
27985;SDS011;15453;53.692;10.168;2023-01-04T08:30:09;3.28;;;2.67;;
27985;SDS011;15453;53.692;10.168;2023-01-04T08:32:34;2.92;;;2.50;;
27985;SDS011;15453;53.692;10.168;2023-01-04T08:35:00;4.10;;;2.42;;
27985;SDS011;15453;53.692;10.168;2023-01-04T08:37:25;4.10;;;2.50;;
27985;SDS011;15453;53.692;10.168;2023-01-04T08:39:50;2.42;;;2.10;;
27985;SDS011;15453;53.692;10.168;2023-01-04T08:42:16;3.92;;;2.83;;
27985;SDS011;15453;53.692;10.168;2023-01-04T08:44:41;3.15;;;2.22;;
27985;SDS011;15453;53.692;10.168;2023-01-04T08:47:06;4.32;;;2.47;;
27985;SDS011;15453;53.692;10.168;2023-01-04T08:49:32;2.78;;;2.40;;
27985;SDS011;15453;53.692;10.168;2023-01-04T08:51:57;2.83;;;2.35;;
27985;SDS011;15453;53.692;10.168;2023-01-04T08:54:22;3.42;;;2.30;;
27985;SDS011;15453;53.692;10.168;2023-01-04T08:56:48;3.55;;;2.70;;
27985;SDS011;15453;53.692;10.168;2023-01-04T08:59:13;3.35;;;2.20;;
27985;SDS011;15453;53.692;10.168;2023-01-04T09:01:38;4.75;;;1.98;;
27985;SDS011;15453;53.692;10.168;2023-01-04T09:04:05;2.75;;;2.30;;
27985;SDS011;15453;53.692;10.168;2023-01-04T09:06:30;3.30;;;1.98;;
27985;SDS011;15453;53.692;10.168;2023-01-04T09:08:56;4.43;;;1.85;;
27985;SDS011;15453;53.692;10.168;2023-01-04T09:11:22;2.65;;;2.15;;
27985;SDS011;15453;53.692;10.168;2023-01-04T09:13:48;2.40;;;2.20;;
27985;SDS011;15453;53.692;10.168;2023-01-04T09:16:18;2.83;;;1.92;;
27985;SDS011;15453;53.692;10.168;2023-01-04T09:18:44;3.03;;;1.95;;
27985;SDS011;15453;53.692;10.168;2023-01-04T09:21:13;3.10;;;1.88;;
27985;SDS011;15453;53.692;10.168;2023-01-04T09:23:40;1.77;;;1.52;;
27985;SDS011;15453;53.692;10.168;2023-01-04T09:26:07;2.10;;;1.90;;
27985;SDS011;15453;53.692;10.168;2023-01-04T09:28:34;2.20;;;1.63;;
27985;SDS011;15453;53.692;10.168;2023-01-04T09:31:32;3.83;;;2.40;;
27985;SDS011;15453;53.692;10.168;2023-01-04T09:33:52;2.20;;;1.80;;
27985;SDS011;15453;53.692;10.168;2023-01-04T09:36:18;2.17;;;1.60;;
27985;SDS011;15453;53.692;10.168;2023-01-04T09:38:44;1.30;;;1.20;;
27985;SDS011;15453;53.692;10.168;2023-01-04T09:41:14;3.03;;;1.35;;
27985;SDS011;15453;53.692;10.168;2023-01-04T09:46:16;1.17;;;1.08;;
27985;SDS011;15453;53.692;10.168;2023-01-04T09:48:47;2.33;;;1.38;;
27985;SDS011;15453;53.692;10.168;2023-01-04T09:51:16;1.25;;;1.15;;
27985;SDS011;15453;53.692;10.168;2023-01-04T09:53:49;1.20;;;1.10;;
27985;SDS011;15453;53.692;10.168;2023-01-04T09:56:28;1.30;;;1.10;;
27985;SDS011;15453;53.692;10.168;2023-01-04T09:58:57;1.80;;;1.30;;
27985;SDS011;15453;53.692;10.168;2023-01-04T10:01:40;1.60;;;1.10;;
27985;SDS011;15453;53.692;10.168;2023-01-04T10:06:48;3.63;;;1.20;;
27985;SDS011;15453;53.692;10.168;2023-01-04T10:09:14;1.73;;;1.10;;
27985;SDS011;15453;53.692;10.168;2023-01-04T10:11:51;2.03;;;1.00;;
27985;SDS011;15453;53.692;10.168;2023-01-04T10:14:38;1.08;;;0.90;;
27985;SDS011;15453;53.692;10.168;2023-01-04T10:17:29;1.30;;;0.80;;
27985;SDS011;15453;53.692;10.168;2023-01-04T10:23:13;1.35;;;1.00;;
27985;SDS011;15453;53.692;10.168;2023-01-04T10:28:27;3.47;;;0.93;;
27985;SDS011;15453;53.692;10.168;2023-01-04T10:31:10;1.60;;;0.90;;
27985;SDS011;15453;53.692;10.168;2023-01-04T10:33:49;2.05;;;0.90;;
27985;SDS011;15453;53.692;10.168;2023-01-04T10:36:21;1.35;;;0.80;;
27985;SDS011;15453;53.692;10.168;2023-01-04T10:39:00;1.17;;;0.85;;
27985;SDS011;15453;53.692;10.168;2023-01-04T10:41:30;1.13;;;1.00;;
27985;SDS011;15453;53.692;10.168;2023-01-04T10:49:10;1.63;;;0.70;;
27985;SDS011;15453;53.692;10.168;2023-01-04T10:51:44;0.82;;;0.70;;
27985;SDS011;15453;53.692;10.168;2023-01-04T10:54:24;1.15;;;0.98;;
27985;SDS011;15453;53.692;10.168;2023-01-04T10:56:56;0.60;;;0.50;;
27985;SDS011;15453;53.692;10.168;2023-01-04T10:59:37;1.58;;;1.00;;
27985;SDS011;15453;53.692;10.168;2023-01-04T11:02:12;1.67;;;0.90;;
27985;SDS011;15453;53.692;10.168;2023-01-04T11:04:59;0.82;;;0.75;;
27985;SDS011;15453;53.692;10.168;2023-01-04T11:07:39;0.93;;;0.60;;
27985;SDS011;15453;53.692;10.168;2023-01-04T11:10:11;1.15;;;0.80;;
27985;SDS011;15453;53.692;10.168;2023-01-04T11:12:41;1.02;;;0.70;;
27985;SDS011;15453;53.692;10.168;2023-01-04T11:15:07;1.05;;;0.80;;
27985;SDS011;15453;53.692;10.168;2023-01-04T11:17:33;0.75;;;0.50;;
27985;SDS011;15453;53.692;10.168;2023-01-04T11:19:59;0.93;;;0.70;;
27985;SDS011;15453;53.692;10.168;2023-01-04T11:22:27;1.98;;;0.95;;
27985;SDS011;15453;53.692;10.168;2023-01-04T11:25:03;0.82;;;0.77;;
27985;SDS011;15453;53.692;10.168;2023-01-04T11:27:34;1.48;;;0.70;;
27985;SDS011;15453;53.692;10.168;2023-01-04T11:30:24;4.28;;;0.80;;
27985;SDS011;15453;53.692;10.168;2023-01-04T11:33:00;1.00;;;0.90;;
27985;SDS011;15453;53.692;10.168;2023-01-04T11:38:08;1.20;;;0.80;;
27985;SDS011;15453;53.692;10.168;2023-01-04T11:40:36;0.95;;;0.70;;
27985;SDS011;15453;53.692;10.168;2023-01-04T11:43:13;1.30;;;1.13;;
27985;SDS011;15453;53.692;10.168;2023-01-04T11:45:45;3.65;;;1.15;;
27985;SDS011;15453;53.692;10.168;2023-01-04T11:48:17;3.78;;;0.82;;
27985;SDS011;15453;53.692;10.168;2023-01-04T11:50:45;3.20;;;0.77;;
27985;SDS011;15453;53.692;10.168;2023-01-04T11:56:09;0.82;;;0.52;;
27985;SDS011;15453;53.692;10.168;2023-01-04T11:58:37;0.93;;;0.80;;
27985;SDS011;15453;53.692;10.168;2023-01-04T12:01:02;2.00;;;1.10;;
27985;SDS011;15453;53.692;10.168;2023-01-04T12:03:29;2.25;;;0.70;;
27985;SDS011;15453;53.692;10.168;2023-01-04T12:05:56;1.42;;;0.80;;
27985;SDS011;15453;53.692;10.168;2023-01-04T12:10:59;0.50;;;0.50;;
27985;SDS011;15453;53.692;10.168;2023-01-04T12:13:26;0.70;;;0.40;;
27985;SDS011;15453;53.692;10.168;2023-01-04T12:16:13;0.52;;;0.52;;
27985;SDS011;15453;53.692;10.168;2023-01-04T12:18:46;0.50;;;0.50;;
27985;SDS011;15453;53.692;10.168;2023-01-04T12:21:31;0.57;;;0.50;;
27985;SDS011;15453;53.692;10.168;2023-01-04T12:23:58;1.65;;;0.80;;
27985;SDS011;15453;53.692;10.168;2023-01-04T12:26:25;0.85;;;0.50;;
27985;SDS011;15453;53.692;10.168;2023-01-04T12:31:49;1.33;;;0.75;;
27985;SDS011;15453;53.692;10.168;2023-01-04T12:37:08;0.98;;;0.70;;
27985;SDS011;15453;53.692;10.168;2023-01-04T12:39:37;0.50;;;0.50;;
27985;SDS011;15453;53.692;10.168;2023-01-04T12:50:01;1.13;;;0.70;;
27985;SDS011;15453;53.692;10.168;2023-01-04T12:54:58;1.80;;;0.57;;
27985;SDS011;15453;53.692;10.168;2023-01-04T12:57:34;0.77;;;0.68;;
27985;SDS011;15453;53.692;10.168;2023-01-04T13:00:02;0.95;;;0.60;;
27985;SDS011;15453;53.692;10.168;2023-01-04T13:05:00;3.17;;;2.03;;
27985;SDS011;15453;53.692;10.168;2023-01-04T13:07:36;3.40;;;2.38;;
27985;SDS011;15453;53.692;10.168;2023-01-04T13:12:55;1.48;;;1.20;;
27985;SDS011;15453;53.692;10.168;2023-01-04T13:18:15;1.70;;;1.10;;
27985;SDS011;15453;53.692;10.168;2023-01-04T13:20:52;1.20;;;0.73;;
27985;SDS011;15453;53.692;10.168;2023-01-04T13:23:17;3.00;;;0.77;;
27985;SDS011;15453;53.692;10.168;2023-01-04T13:25:43;2.97;;;1.20;;
27985;SDS011;15453;53.692;10.168;2023-01-04T13:28:12;1.92;;;1.00;;
27985;SDS011;15453;53.692;10.168;2023-01-04T13:30:41;3.47;;;1.20;;
27985;SDS011;15453;53.692;10.168;2023-01-04T13:33:13;2.72;;;0.90;;
27985;SDS011;15453;53.692;10.168;2023-01-04T13:35:42;3.22;;;1.80;;
27985;SDS011;15453;53.692;10.168;2023-01-04T13:38:12;2.15;;;1.10;;
27985;SDS011;15453;53.692;10.168;2023-01-04T13:40:43;1.63;;;0.80;;
27985;SDS011;15453;53.692;10.168;2023-01-04T13:43:33;3.25;;;1.20;;
27985;SDS011;15453;53.692;10.168;2023-01-04T13:48:51;2.88;;;1.35;;
27985;SDS011;15453;53.692;10.168;2023-01-04T13:51:23;3.28;;;1.40;;
27985;SDS011;15453;53.692;10.168;2023-01-04T13:53:57;2.47;;;1.13;;
27985;SDS011;15453;53.692;10.168;2023-01-04T13:56:25;4.25;;;2.22;;
27985;SDS011;15453;53.692;10.168;2023-01-04T13:58:52;4.57;;;2.30;;
27985;SDS011;15453;53.692;10.168;2023-01-04T14:01:22;2.78;;;1.65;;
27985;SDS011;15453;53.692;10.168;2023-01-04T14:03:49;5.50;;;1.70;;
27985;SDS011;15453;53.692;10.168;2023-01-04T14:06:18;2.58;;;1.30;;
27985;SDS011;15453;53.692;10.168;2023-01-04T14:14:26;4.75;;;1.95;;
27985;SDS011;15453;53.692;10.168;2023-01-04T14:22:28;3.05;;;1.58;;
27985;SDS011;15453;53.692;10.168;2023-01-04T14:24:57;4.68;;;1.65;;
27985;SDS011;15453;53.692;10.168;2023-01-04T14:27:38;2.30;;;1.40;;
27985;SDS011;15453;53.692;10.168;2023-01-04T14:32:58;5.03;;;1.48;;
27985;SDS011;15453;53.692;10.168;2023-01-04T14:35:25;3.05;;;1.10;;
27985;SDS011;15453;53.692;10.168;2023-01-04T14:37:51;4.00;;;1.42;;
27985;SDS011;15453;53.692;10.168;2023-01-04T14:40:24;7.78;;;1.70;;
27985;SDS011;15453;53.692;10.168;2023-01-04T14:42:52;4.88;;;1.02;;
27985;SDS011;15453;53.692;10.168;2023-01-04T14:45:18;2.65;;;1.02;;
27985;SDS011;15453;53.692;10.168;2023-01-04T14:47:43;3.47;;;1.00;;
27985;SDS011;15453;53.692;10.168;2023-01-04T14:50:09;5.43;;;1.38;;
27985;SDS011;15453;53.692;10.168;2023-01-04T14:52:41;5.13;;;1.30;;
27985;SDS011;15453;53.692;10.168;2023-01-04T14:55:14;4.90;;;1.65;;
27985;SDS011;15453;53.692;10.168;2023-01-04T14:57:39;3.90;;;1.33;;
27985;SDS011;15453;53.692;10.168;2023-01-04T15:00:08;5.40;;;1.30;;
27985;SDS011;15453;53.692;10.168;2023-01-04T15:02:36;3.35;;;1.65;;
27985;SDS011;15453;53.692;10.168;2023-01-04T15:05:01;4.85;;;1.77;;
27985;SDS011;15453;53.692;10.168;2023-01-04T15:07:34;6.95;;;1.90;;
27985;SDS011;15453;53.692;10.168;2023-01-04T15:10:04;8.15;;;1.98;;
27985;SDS011;15453;53.692;10.168;2023-01-04T15:12:31;6.85;;;1.65;;
27985;SDS011;15453;53.692;10.168;2023-01-04T15:14:56;8.68;;;1.88;;
27985;SDS011;15453;53.692;10.168;2023-01-04T15:17:22;7.65;;;2.30;;
27985;SDS011;15453;53.692;10.168;2023-01-04T15:19:47;14.68;;;6.80;;
27985;SDS011;15453;53.692;10.168;2023-01-04T15:22:12;13.73;;;5.65;;
27985;SDS011;15453;53.692;10.168;2023-01-04T15:24:37;9.85;;;3.13;;
27985;SDS011;15453;53.692;10.168;2023-01-04T15:27:03;9.25;;;2.38;;
27985;SDS011;15453;53.692;10.168;2023-01-04T15:29:28;9.38;;;2.13;;
27985;SDS011;15453;53.692;10.168;2023-01-04T15:31:53;10.25;;;2.10;;
27985;SDS011;15453;53.692;10.168;2023-01-04T15:34:18;13.70;;;3.03;;
27985;SDS011;15453;53.692;10.168;2023-01-04T15:36:44;10.35;;;2.55;;
27985;SDS011;15453;53.692;10.168;2023-01-04T15:39:10;9.77;;;3.25;;
27985;SDS011;15453;53.692;10.168;2023-01-04T15:41:37;11.30;;;3.53;;
27985;SDS011;15453;53.692;10.168;2023-01-04T15:44:21;10.35;;;2.60;;
27985;SDS011;15453;53.692;10.168;2023-01-04T15:46:46;10.50;;;2.42;;
27985;SDS011;15453;53.692;10.168;2023-01-04T15:49:11;10.20;;;2.35;;
27985;SDS011;15453;53.692;10.168;2023-01-04T15:51:37;8.07;;;2.30;;
27985;SDS011;15453;53.692;10.168;2023-01-04T15:54:02;10.13;;;2.95;;
27985;SDS011;15453;53.692;10.168;2023-01-04T15:56:28;13.32;;;2.90;;
27985;SDS011;15453;53.692;10.168;2023-01-04T15:58:53;9.68;;;2.28;;
27985;SDS011;15453;53.692;10.168;2023-01-04T16:01:19;9.63;;;2.50;;
27985;SDS011;15453;53.692;10.168;2023-01-04T16:03:44;8.55;;;2.67;;
27985;SDS011;15453;53.692;10.168;2023-01-04T16:06:11;9.02;;;2.63;;
27985;SDS011;15453;53.692;10.168;2023-01-04T16:08:38;8.18;;;2.30;;
27985;SDS011;15453;53.692;10.168;2023-01-04T16:11:14;11.13;;;2.97;;
27985;SDS011;15453;53.692;10.168;2023-01-04T16:13:41;10.73;;;2.22;;
27985;SDS011;15453;53.692;10.168;2023-01-04T16:16:07;12.13;;;2.50;;
27985;SDS011;15453;53.692;10.168;2023-01-04T16:18:33;12.43;;;2.40;;
27985;SDS011;15453;53.692;10.168;2023-01-04T16:20:58;7.35;;;2.38;;
27985;SDS011;15453;53.692;10.168;2023-01-04T16:23:24;13.15;;;2.38;;